sensor_id;sensor_type;location;lat;lon;timestamp;P1;durP1;ratioP1;P2;durP2;ratioP2
42186;SDS011;27858;51.414;0.018;2023-12-29T00:02:17;10.18;;;3.88;;
42186;SDS011;27858;51.414;0.018;2023-12-29T00:04:44;20.95;;;4.43;;
42186;SDS011;27858;51.414;0.018;2023-12-29T00:07:11;27.00;;;4.93;;
42186;SDS011;27858;51.414;0.018;2023-12-29T00:09:38;18.55;;;3.30;;
42186;SDS011;27858;51.414;0.018;2023-12-29T00:12:07;11.68;;;3.22;;
42186;SDS011;27858;51.414;0.018;2023-12-29T00:14:39;11.77;;;2.70;;
42186;SDS011;27858;51.414;0.018;2023-12-29T00:17:06;15.30;;;2.30;;
42186;SDS011;27858;51.414;0.018;2023-12-29T00:19:33;8.68;;;2.42;;
42186;SDS011;27858;51.414;0.018;2023-12-29T00:22:01;18.50;;;4.20;;
42186;SDS011;27858;51.414;0.018;2023-12-29T00:24:30;18.73;;;3.67;;
42186;SDS011;27858;51.414;0.018;2023-12-29T00:27:00;13.95;;;2.85;;
42186;SDS011;27858;51.414;0.018;2023-12-29T00:29:28;8.23;;;3.65;;
42186;SDS011;27858;51.414;0.018;2023-12-29T00:31:59;13.23;;;3.88;;
42186;SDS011;27858;51.414;0.018;2023-12-29T00:34:30;13.63;;;3.67;;
42186;SDS011;27858;51.414;0.018;2023-12-29T00:36:57;16.48;;;3.35;;
42186;SDS011;27858;51.414;0.018;2023-12-29T00:39:24;11.55;;;3.42;;
42186;SDS011;27858;51.414;0.018;2023-12-29T00:41:56;12.60;;;4.72;;
42186;SDS011;27858;51.414;0.018;2023-12-29T00:44:23;9.80;;;3.28;;
42186;SDS011;27858;51.414;0.018;2023-12-29T00:46:50;21.73;;;4.53;;
42186;SDS011;27858;51.414;0.018;2023-12-29T00:49:17;17.00;;;4.10;;
42186;SDS011;27858;51.414;0.018;2023-12-29T00:51:44;16.15;;;3.25;;
42186;SDS011;27858;51.414;0.018;2023-12-29T00:54:13;10.27;;;2.65;;
42186;SDS011;27858;51.414;0.018;2023-12-29T00:56:40;10.75;;;3.17;;
42186;SDS011;27858;51.414;0.018;2023-12-29T00:59:07;13.98;;;2.85;;
42186;SDS011;27858;51.414;0.018;2023-12-29T01:01:34;10.60;;;3.22;;
42186;SDS011;27858;51.414;0.018;2023-12-29T01:04:02;17.00;;;3.38;;
42186;SDS011;27858;51.414;0.018;2023-12-29T01:06:29;9.95;;;3.72;;
42186;SDS011;27858;51.414;0.018;2023-12-29T01:08:56;11.48;;;3.20;;
42186;SDS011;27858;51.414;0.018;2023-12-29T01:11:23;16.10;;;3.65;;
42186;SDS011;27858;51.414;0.018;2023-12-29T01:13:50;11.00;;;2.90;;
42186;SDS011;27858;51.414;0.018;2023-12-29T01:16:17;11.63;;;3.17;;
42186;SDS011;27858;51.414;0.018;2023-12-29T01:18:45;8.40;;;3.45;;
42186;SDS011;27858;51.414;0.018;2023-12-29T01:21:12;8.50;;;2.22;;
42186;SDS011;27858;51.414;0.018;2023-12-29T01:23:39;7.90;;;2.55;;
42186;SDS011;27858;51.414;0.018;2023-12-29T01:26:05;7.85;;;2.38;;
42186;SDS011;27858;51.414;0.018;2023-12-29T01:28:32;11.13;;;4.00;;
42186;SDS011;27858;51.414;0.018;2023-12-29T01:30:59;13.45;;;3.22;;
42186;SDS011;27858;51.414;0.018;2023-12-29T01:33:26;24.95;;;4.40;;
42186;SDS011;27858;51.414;0.018;2023-12-29T01:35:54;12.73;;;2.55;;
42186;SDS011;27858;51.414;0.018;2023-12-29T01:38:20;8.73;;;2.38;;
42186;SDS011;27858;51.414;0.018;2023-12-29T01:40:47;25.50;;;4.57;;
42186;SDS011;27858;51.414;0.018;2023-12-29T01:43:14;12.20;;;3.42;;
42186;SDS011;27858;51.414;0.018;2023-12-29T01:45:41;18.02;;;4.05;;
42186;SDS011;27858;51.414;0.018;2023-12-29T01:48:21;14.93;;;3.17;;
42186;SDS011;27858;51.414;0.018;2023-12-29T01:50:50;10.73;;;4.15;;
42186;SDS011;27858;51.414;0.018;2023-12-29T01:53:17;18.25;;;5.18;;
42186;SDS011;27858;51.414;0.018;2023-12-29T01:55:52;10.75;;;3.83;;
42186;SDS011;27858;51.414;0.018;2023-12-29T01:58:19;21.15;;;2.85;;
42186;SDS011;27858;51.414;0.018;2023-12-29T02:00:46;13.57;;;3.80;;
42186;SDS011;27858;51.414;0.018;2023-12-29T02:03:13;13.80;;;2.83;;
42186;SDS011;27858;51.414;0.018;2023-12-29T02:05:40;12.75;;;3.53;;
42186;SDS011;27858;51.414;0.018;2023-12-29T02:08:09;14.32;;;3.00;;
42186;SDS011;27858;51.414;0.018;2023-12-29T02:10:37;10.52;;;2.75;;
42186;SDS011;27858;51.414;0.018;2023-12-29T02:13:04;14.40;;;3.58;;
42186;SDS011;27858;51.414;0.018;2023-12-29T02:15:30;23.23;;;4.57;;
42186;SDS011;27858;51.414;0.018;2023-12-29T02:17:59;20.90;;;3.42;;
42186;SDS011;27858;51.414;0.018;2023-12-29T02:20:30;16.60;;;3.55;;
42186;SDS011;27858;51.414;0.018;2023-12-29T02:22:56;16.00;;;3.08;;
42186;SDS011;27858;51.414;0.018;2023-12-29T02:25:23;9.65;;;3.38;;
42186;SDS011;27858;51.414;0.018;2023-12-29T02:28:11;17.70;;;3.90;;
42186;SDS011;27858;51.414;0.018;2023-12-29T02:30:49;6.43;;;2.25;;
42186;SDS011;27858;51.414;0.018;2023-12-29T02:33:32;11.13;;;2.72;;
42186;SDS011;27858;51.414;0.018;2023-12-29T02:36:07;14.18;;;4.78;;
42186;SDS011;27858;51.414;0.018;2023-12-29T02:38:34;19.13;;;3.78;;
42186;SDS011;27858;51.414;0.018;2023-12-29T02:41:04;8.73;;;2.70;;
42186;SDS011;27858;51.414;0.018;2023-12-29T02:43:32;13.23;;;4.53;;
42186;SDS011;27858;51.414;0.018;2023-12-29T02:45:59;11.65;;;2.75;;
42186;SDS011;27858;51.414;0.018;2023-12-29T02:48:26;11.48;;;2.97;;
42186;SDS011;27858;51.414;0.018;2023-12-29T02:50:53;9.43;;;2.33;;
42186;SDS011;27858;51.414;0.018;2023-12-29T02:53:20;13.82;;;3.85;;
42186;SDS011;27858;51.414;0.018;2023-12-29T02:55:47;11.55;;;3.78;;
42186;SDS011;27858;51.414;0.018;2023-12-29T02:58:14;24.42;;;3.80;;
42186;SDS011;27858;51.414;0.018;2023-12-29T03:00:41;9.93;;;3.22;;
42186;SDS011;27858;51.414;0.018;2023-12-29T03:03:08;16.35;;;4.32;;
42186;SDS011;27858;51.414;0.018;2023-12-29T03:05:35;16.90;;;4.40;;
42186;SDS011;27858;51.414;0.018;2023-12-29T03:08:02;12.07;;;3.15;;
42186;SDS011;27858;51.414;0.018;2023-12-29T03:10:30;15.82;;;4.60;;
42186;SDS011;27858;51.414;0.018;2023-12-29T03:12:57;10.02;;;3.28;;
42186;SDS011;27858;51.414;0.018;2023-12-29T03:15:24;16.75;;;2.50;;
42186;SDS011;27858;51.414;0.018;2023-12-29T03:17:50;13.57;;;3.53;;
42186;SDS011;27858;51.414;0.018;2023-12-29T03:20:17;18.60;;;5.25;;
42186;SDS011;27858;51.414;0.018;2023-12-29T03:22:45;15.55;;;3.20;;
42186;SDS011;27858;51.414;0.018;2023-12-29T03:25:11;16.98;;;3.88;;
42186;SDS011;27858;51.414;0.018;2023-12-29T03:27:39;16.20;;;3.78;;
42186;SDS011;27858;51.414;0.018;2023-12-29T03:30:06;22.70;;;4.18;;
42186;SDS011;27858;51.414;0.018;2023-12-29T03:32:33;18.17;;;3.50;;
42186;SDS011;27858;51.414;0.018;2023-12-29T03:35:00;15.85;;;3.63;;
42186;SDS011;27858;51.414;0.018;2023-12-29T03:37:28;14.88;;;4.45;;
42186;SDS011;27858;51.414;0.018;2023-12-29T03:39:55;15.20;;;3.42;;
42186;SDS011;27858;51.414;0.018;2023-12-29T03:42:22;12.48;;;3.72;;
42186;SDS011;27858;51.414;0.018;2023-12-29T03:44:49;18.92;;;4.13;;
42186;SDS011;27858;51.414;0.018;2023-12-29T03:47:16;26.25;;;4.32;;
42186;SDS011;27858;51.414;0.018;2023-12-29T03:49:43;5.90;;;2.08;;
42186;SDS011;27858;51.414;0.018;2023-12-29T03:52:10;9.73;;;2.58;;
42186;SDS011;27858;51.414;0.018;2023-12-29T03:54:37;15.32;;;3.78;;
42186;SDS011;27858;51.414;0.018;2023-12-29T03:57:04;16.00;;;3.97;;
42186;SDS011;27858;51.414;0.018;2023-12-29T03:59:31;9.13;;;3.28;;
42186;SDS011;27858;51.414;0.018;2023-12-29T04:01:58;8.35;;;3.22;;
42186;SDS011;27858;51.414;0.018;2023-12-29T04:04:25;13.23;;;4.45;;
42186;SDS011;27858;51.414;0.018;2023-12-29T04:06:52;18.92;;;3.40;;
42186;SDS011;27858;51.414;0.018;2023-12-29T04:09:20;15.50;;;3.70;;
42186;SDS011;27858;51.414;0.018;2023-12-29T04:11:47;19.38;;;4.22;;
42186;SDS011;27858;51.414;0.018;2023-12-29T04:14:14;19.65;;;3.92;;
42186;SDS011;27858;51.414;0.018;2023-12-29T04:16:41;22.95;;;3.30;;
42186;SDS011;27858;51.414;0.018;2023-12-29T04:19:08;14.88;;;2.88;;
42186;SDS011;27858;51.414;0.018;2023-12-29T04:21:36;11.02;;;3.28;;
42186;SDS011;27858;51.414;0.018;2023-12-29T04:24:03;18.55;;;3.33;;
42186;SDS011;27858;51.414;0.018;2023-12-29T04:26:34;13.35;;;3.15;;
42186;SDS011;27858;51.414;0.018;2023-12-29T04:29:02;10.90;;;3.22;;
42186;SDS011;27858;51.414;0.018;2023-12-29T04:31:29;15.52;;;5.10;;
42186;SDS011;27858;51.414;0.018;2023-12-29T04:33:56;10.15;;;3.45;;
42186;SDS011;27858;51.414;0.018;2023-12-29T04:36:23;14.25;;;2.92;;
42186;SDS011;27858;51.414;0.018;2023-12-29T04:38:50;7.78;;;2.47;;
42186;SDS011;27858;51.414;0.018;2023-12-29T04:41:17;12.77;;;2.80;;
42186;SDS011;27858;51.414;0.018;2023-12-29T04:43:45;9.35;;;3.08;;
42186;SDS011;27858;51.414;0.018;2023-12-29T04:46:11;8.27;;;2.60;;
42186;SDS011;27858;51.414;0.018;2023-12-29T04:48:38;12.68;;;3.15;;
42186;SDS011;27858;51.414;0.018;2023-12-29T04:51:05;13.20;;;3.13;;
42186;SDS011;27858;51.414;0.018;2023-12-29T04:53:32;13.23;;;3.28;;
42186;SDS011;27858;51.414;0.018;2023-12-29T04:55:59;13.65;;;2.95;;
42186;SDS011;27858;51.414;0.018;2023-12-29T04:58:26;10.95;;;2.80;;
42186;SDS011;27858;51.414;0.018;2023-12-29T05:00:53;11.82;;;3.15;;
42186;SDS011;27858;51.414;0.018;2023-12-29T05:03:20;6.85;;;2.42;;
42186;SDS011;27858;51.414;0.018;2023-12-29T05:05:47;7.82;;;1.73;;
42186;SDS011;27858;51.414;0.018;2023-12-29T05:08:14;8.20;;;2.22;;
42186;SDS011;27858;51.414;0.018;2023-12-29T05:10:41;7.70;;;3.40;;
42186;SDS011;27858;51.414;0.018;2023-12-29T05:13:09;9.40;;;2.78;;
42186;SDS011;27858;51.414;0.018;2023-12-29T05:15:36;9.35;;;1.77;;
42186;SDS011;27858;51.414;0.018;2023-12-29T05:18:03;13.43;;;2.42;;
42186;SDS011;27858;51.414;0.018;2023-12-29T05:20:31;11.30;;;2.08;;
42186;SDS011;27858;51.414;0.018;2023-12-29T05:22:58;16.25;;;3.92;;
42186;SDS011;27858;51.414;0.018;2023-12-29T05:25:25;7.63;;;2.10;;
42186;SDS011;27858;51.414;0.018;2023-12-29T05:27:52;11.15;;;2.78;;
42186;SDS011;27858;51.414;0.018;2023-12-29T05:30:19;8.63;;;2.85;;
42186;SDS011;27858;51.414;0.018;2023-12-29T05:32:46;12.50;;;3.25;;
42186;SDS011;27858;51.414;0.018;2023-12-29T05:35:13;16.75;;;4.53;;
42186;SDS011;27858;51.414;0.018;2023-12-29T05:37:40;11.98;;;2.53;;
42186;SDS011;27858;51.414;0.018;2023-12-29T05:50:48;8.57;;;2.70;;
42186;SDS011;27858;51.414;0.018;2023-12-29T05:53:16;17.30;;;4.10;;
42186;SDS011;27858;51.414;0.018;2023-12-29T05:55:43;13.15;;;2.10;;
42186;SDS011;27858;51.414;0.018;2023-12-29T05:58:11;12.70;;;2.47;;
42186;SDS011;27858;51.414;0.018;2023-12-29T06:00:38;6.95;;;2.25;;
42186;SDS011;27858;51.414;0.018;2023-12-29T06:03:06;12.52;;;2.13;;
42186;SDS011;27858;51.414;0.018;2023-12-29T06:05:33;12.60;;;3.45;;
42186;SDS011;27858;51.414;0.018;2023-12-29T06:07:59;13.35;;;2.95;;
42186;SDS011;27858;51.414;0.018;2023-12-29T06:10:27;9.25;;;2.85;;
42186;SDS011;27858;51.414;0.018;2023-12-29T06:12:54;6.88;;;2.25;;
42186;SDS011;27858;51.414;0.018;2023-12-29T06:15:21;6.28;;;2.15;;
42186;SDS011;27858;51.414;0.018;2023-12-29T06:17:48;11.07;;;2.30;;
42186;SDS011;27858;51.414;0.018;2023-12-29T06:20:15;10.50;;;3.67;;
42186;SDS011;27858;51.414;0.018;2023-12-29T06:22:41;12.45;;;2.63;;
42186;SDS011;27858;51.414;0.018;2023-12-29T06:25:09;5.88;;;2.17;;
42186;SDS011;27858;51.414;0.018;2023-12-29T06:27:37;7.45;;;1.83;;
42186;SDS011;27858;51.414;0.018;2023-12-29T06:30:09;15.82;;;2.58;;
42186;SDS011;27858;51.414;0.018;2023-12-29T06:32:40;7.78;;;1.70;;
42186;SDS011;27858;51.414;0.018;2023-12-29T06:35:07;4.38;;;1.52;;
42186;SDS011;27858;51.414;0.018;2023-12-29T06:37:37;5.63;;;1.20;;
42186;SDS011;27858;51.414;0.018;2023-12-29T06:40:05;10.70;;;2.05;;
42186;SDS011;27858;51.414;0.018;2023-12-29T06:42:33;16.10;;;2.47;;
42186;SDS011;27858;51.414;0.018;2023-12-29T06:45:00;4.32;;;1.23;;
42186;SDS011;27858;51.414;0.018;2023-12-29T06:47:27;20.00;;;1.98;;
42186;SDS011;27858;51.414;0.018;2023-12-29T06:49:54;9.13;;;1.73;;
42186;SDS011;27858;51.414;0.018;2023-12-29T06:52:21;6.97;;;1.23;;
42186;SDS011;27858;51.414;0.018;2023-12-29T06:54:48;8.20;;;1.77;;
42186;SDS011;27858;51.414;0.018;2023-12-29T06:57:15;5.70;;;2.15;;
42186;SDS011;27858;51.414;0.018;2023-12-29T06:59:42;10.02;;;2.00;;
42186;SDS011;27858;51.414;0.018;2023-12-29T07:02:10;9.00;;;2.05;;
42186;SDS011;27858;51.414;0.018;2023-12-29T07:04:40;7.20;;;2.03;;
42186;SDS011;27858;51.414;0.018;2023-12-29T07:07:09;5.63;;;1.77;;
42186;SDS011;27858;51.414;0.018;2023-12-29T07:09:39;8.98;;;1.73;;
42186;SDS011;27858;51.414;0.018;2023-12-29T07:12:06;4.00;;;1.27;;
42186;SDS011;27858;51.414;0.018;2023-12-29T07:14:34;9.15;;;2.58;;
42186;SDS011;27858;51.414;0.018;2023-12-29T07:17:02;14.38;;;1.90;;
42186;SDS011;27858;51.414;0.018;2023-12-29T07:19:30;6.30;;;2.00;;
42186;SDS011;27858;51.414;0.018;2023-12-29T07:22:05;6.93;;;1.98;;
42186;SDS011;27858;51.414;0.018;2023-12-29T07:24:34;3.78;;;1.05;;
42186;SDS011;27858;51.414;0.018;2023-12-29T07:27:02;4.80;;;1.15;;
42186;SDS011;27858;51.414;0.018;2023-12-29T07:29:31;8.95;;;2.55;;
42186;SDS011;27858;51.414;0.018;2023-12-29T07:31:58;5.22;;;0.90;;
42186;SDS011;27858;51.414;0.018;2023-12-29T07:34:25;4.97;;;1.55;;
42186;SDS011;27858;51.414;0.018;2023-12-29T07:36:54;8.40;;;1.63;;
42186;SDS011;27858;51.414;0.018;2023-12-29T07:39:21;8.13;;;1.60;;
42186;SDS011;27858;51.414;0.018;2023-12-29T07:41:48;4.25;;;1.77;;
42186;SDS011;27858;51.414;0.018;2023-12-29T07:44:17;8.57;;;1.35;;
42186;SDS011;27858;51.414;0.018;2023-12-29T07:46:44;9.57;;;2.55;;
42186;SDS011;27858;51.414;0.018;2023-12-29T07:49:11;6.68;;;1.58;;
42186;SDS011;27858;51.414;0.018;2023-12-29T07:51:41;6.32;;;1.65;;
42186;SDS011;27858;51.414;0.018;2023-12-29T07:54:09;7.07;;;1.47;;
42186;SDS011;27858;51.414;0.018;2023-12-29T07:56:36;3.90;;;1.42;;
42186;SDS011;27858;51.414;0.018;2023-12-29T07:59:04;3.45;;;1.30;;
42186;SDS011;27858;51.414;0.018;2023-12-29T08:01:31;3.58;;;1.42;;
42186;SDS011;27858;51.414;0.018;2023-12-29T08:03:58;4.35;;;1.83;;
42186;SDS011;27858;51.414;0.018;2023-12-29T08:06:25;3.97;;;1.27;;
42186;SDS011;27858;51.414;0.018;2023-12-29T08:08:52;5.35;;;1.10;;
42186;SDS011;27858;51.414;0.018;2023-12-29T08:11:21;12.13;;;2.22;;
42186;SDS011;27858;51.414;0.018;2023-12-29T08:13:48;5.95;;;1.45;;
42186;SDS011;27858;51.414;0.018;2023-12-29T08:16:15;5.25;;;1.85;;
42186;SDS011;27858;51.414;0.018;2023-12-29T08:18:46;2.58;;;0.70;;
42186;SDS011;27858;51.414;0.018;2023-12-29T08:21:17;4.25;;;1.15;;
42186;SDS011;27858;51.414;0.018;2023-12-29T08:23:45;3.55;;;0.63;;
42186;SDS011;27858;51.414;0.018;2023-12-29T08:26:13;4.95;;;1.35;;
42186;SDS011;27858;51.414;0.018;2023-12-29T08:28:41;4.10;;;1.13;;
42186;SDS011;27858;51.414;0.018;2023-12-29T08:31:08;2.55;;;0.93;;
42186;SDS011;27858;51.414;0.018;2023-12-29T08:33:35;6.65;;;0.80;;
42186;SDS011;27858;51.414;0.018;2023-12-29T08:36:02;3.13;;;1.08;;
42186;SDS011;27858;51.414;0.018;2023-12-29T08:38:30;5.47;;;1.00;;
42186;SDS011;27858;51.414;0.018;2023-12-29T08:41:00;1.90;;;1.02;;
42186;SDS011;27858;51.414;0.018;2023-12-29T08:43:27;2.97;;;1.17;;
42186;SDS011;27858;51.414;0.018;2023-12-29T08:45:54;6.03;;;1.20;;
42186;SDS011;27858;51.414;0.018;2023-12-29T08:48:21;6.85;;;1.23;;
42186;SDS011;27858;51.414;0.018;2023-12-29T08:50:48;12.30;;;2.03;;
42186;SDS011;27858;51.414;0.018;2023-12-29T08:53:16;4.47;;;2.03;;
42186;SDS011;27858;51.414;0.018;2023-12-29T08:55:43;7.05;;;1.00;;
42186;SDS011;27858;51.414;0.018;2023-12-29T08:58:10;3.28;;;1.38;;
42186;SDS011;27858;51.414;0.018;2023-12-29T09:00:38;1.63;;;0.50;;
42186;SDS011;27858;51.414;0.018;2023-12-29T09:03:04;2.35;;;0.98;;
42186;SDS011;27858;51.414;0.018;2023-12-29T09:05:31;2.55;;;0.75;;
42186;SDS011;27858;51.414;0.018;2023-12-29T09:07:58;5.75;;;1.27;;
42186;SDS011;27858;51.414;0.018;2023-12-29T09:10:25;2.45;;;0.70;;
42186;SDS011;27858;51.414;0.018;2023-12-29T09:12:52;4.43;;;1.23;;
42186;SDS011;27858;51.414;0.018;2023-12-29T09:15:19;2.85;;;0.98;;
42186;SDS011;27858;51.414;0.018;2023-12-29T09:17:46;4.63;;;1.60;;
42186;SDS011;27858;51.414;0.018;2023-12-29T09:20:13;5.18;;;1.25;;
42186;SDS011;27858;51.414;0.018;2023-12-29T09:22:41;1.40;;;0.80;;
42186;SDS011;27858;51.414;0.018;2023-12-29T09:25:08;4.18;;;1.23;;
42186;SDS011;27858;51.414;0.018;2023-12-29T09:27:35;5.15;;;1.33;;
42186;SDS011;27858;51.414;0.018;2023-12-29T09:30:02;4.85;;;1.10;;
42186;SDS011;27858;51.414;0.018;2023-12-29T09:32:30;4.65;;;1.10;;
42186;SDS011;27858;51.414;0.018;2023-12-29T09:34:57;6.40;;;1.50;;
42186;SDS011;27858;51.414;0.018;2023-12-29T09:37:24;4.75;;;1.40;;
42186;SDS011;27858;51.414;0.018;2023-12-29T09:39:50;2.42;;;1.10;;
42186;SDS011;27858;51.414;0.018;2023-12-29T09:42:19;2.15;;;0.88;;
42186;SDS011;27858;51.414;0.018;2023-12-29T09:44:50;3.92;;;0.77;;
42186;SDS011;27858;51.414;0.018;2023-12-29T09:47:20;9.48;;;1.42;;
42186;SDS011;27858;51.414;0.018;2023-12-29T09:49:52;5.57;;;1.70;;
42186;SDS011;27858;51.414;0.018;2023-12-29T09:52:21;12.32;;;2.40;;
42186;SDS011;27858;51.414;0.018;2023-12-29T09:54:52;7.03;;;1.70;;
42186;SDS011;27858;51.414;0.018;2023-12-29T09:57:19;3.88;;;0.95;;
42186;SDS011;27858;51.414;0.018;2023-12-29T09:59:48;4.93;;;1.25;;
42186;SDS011;27858;51.414;0.018;2023-12-29T10:02:18;5.87;;;1.27;;
42186;SDS011;27858;51.414;0.018;2023-12-29T10:04:48;5.88;;;1.20;;
42186;SDS011;27858;51.414;0.018;2023-12-29T10:07:25;5.45;;;1.38;;
42186;SDS011;27858;51.414;0.018;2023-12-29T10:09:54;5.57;;;1.13;;
42186;SDS011;27858;51.414;0.018;2023-12-29T10:12:24;2.45;;;1.00;;
42186;SDS011;27858;51.414;0.018;2023-12-29T10:23:10;2.95;;;1.13;;
42186;SDS011;27858;51.414;0.018;2023-12-29T10:28:07;7.55;;;1.38;;
42186;SDS011;27858;51.414;0.018;2023-12-29T10:30:36;5.38;;;2.00;;
42186;SDS011;27858;51.414;0.018;2023-12-29T10:33:06;6.13;;;1.88;;
42186;SDS011;27858;51.414;0.018;2023-12-29T10:35:37;8.20;;;1.25;;
42186;SDS011;27858;51.414;0.018;2023-12-29T10:38:12;3.83;;;1.65;;
42186;SDS011;27858;51.414;0.018;2023-12-29T10:40:39;5.25;;;1.35;;
42186;SDS011;27858;51.414;0.018;2023-12-29T10:43:06;10.73;;;2.08;;
42186;SDS011;27858;51.414;0.018;2023-12-29T10:45:35;7.95;;;1.88;;
42186;SDS011;27858;51.414;0.018;2023-12-29T10:48:03;9.05;;;2.33;;
42186;SDS011;27858;51.414;0.018;2023-12-29T10:50:30;5.20;;;1.20;;
42186;SDS011;27858;51.414;0.018;2023-12-29T10:53:15;4.80;;;1.65;;
42186;SDS011;27858;51.414;0.018;2023-12-29T10:55:44;10.10;;;1.80;;
42186;SDS011;27858;51.414;0.018;2023-12-29T10:58:11;7.03;;;1.08;;
42186;SDS011;27858;51.414;0.018;2023-12-29T11:00:38;10.40;;;2.67;;
42186;SDS011;27858;51.414;0.018;2023-12-29T11:03:05;4.50;;;1.73;;
42186;SDS011;27858;51.414;0.018;2023-12-29T11:05:33;10.63;;;3.38;;
42186;SDS011;27858;51.414;0.018;2023-12-29T11:08:00;5.40;;;1.38;;
42186;SDS011;27858;51.414;0.018;2023-12-29T11:10:27;14.13;;;2.72;;
42186;SDS011;27858;51.414;0.018;2023-12-29T11:12:55;7.70;;;1.73;;
42186;SDS011;27858;51.414;0.018;2023-12-29T11:15:23;11.95;;;2.53;;
42186;SDS011;27858;51.414;0.018;2023-12-29T11:17:51;5.85;;;2.28;;
42186;SDS011;27858;51.414;0.018;2023-12-29T11:20:22;6.03;;;1.98;;
42186;SDS011;27858;51.414;0.018;2023-12-29T11:22:52;4.75;;;1.73;;
42186;SDS011;27858;51.414;0.018;2023-12-29T11:25:20;5.38;;;1.75;;
42186;SDS011;27858;51.414;0.018;2023-12-29T11:27:47;5.43;;;1.73;;
42186;SDS011;27858;51.414;0.018;2023-12-29T11:30:16;4.05;;;2.20;;
42186;SDS011;27858;51.414;0.018;2023-12-29T11:35:23;5.88;;;2.03;;
42186;SDS011;27858;51.414;0.018;2023-12-29T11:40:41;8.35;;;2.05;;
42186;SDS011;27858;51.414;0.018;2023-12-29T11:43:17;6.40;;;1.75;;
42186;SDS011;27858;51.414;0.018;2023-12-29T11:45:44;5.38;;;1.40;;
42186;SDS011;27858;51.414;0.018;2023-12-29T11:48:12;7.20;;;2.55;;
42186;SDS011;27858;51.414;0.018;2023-12-29T11:50:39;11.27;;;3.17;;
42186;SDS011;27858;51.414;0.018;2023-12-29T11:53:07;9.93;;;2.75;;
42186;SDS011;27858;51.414;0.018;2023-12-29T11:55:39;10.27;;;2.58;;
42186;SDS011;27858;51.414;0.018;2023-12-29T11:58:24;3.45;;;1.20;;
42186;SDS011;27858;51.414;0.018;2023-12-29T12:00:55;5.75;;;1.83;;
42186;SDS011;27858;51.414;0.018;2023-12-29T12:03:26;6.00;;;1.77;;
42186;SDS011;27858;51.414;0.018;2023-12-29T12:05:55;10.00;;;1.80;;
42186;SDS011;27858;51.414;0.018;2023-12-29T12:08:34;7.47;;;2.03;;
42186;SDS011;27858;51.414;0.018;2023-12-29T12:13:55;5.90;;;1.40;;
42186;SDS011;27858;51.414;0.018;2023-12-29T12:19:12;11.38;;;1.50;;
42186;SDS011;27858;51.414;0.018;2023-12-29T12:21:40;9.85;;;1.52;;
42186;SDS011;27858;51.414;0.018;2023-12-29T12:24:07;14.90;;;2.00;;
42186;SDS011;27858;51.414;0.018;2023-12-29T12:26:35;2.58;;;1.08;;
42186;SDS011;27858;51.414;0.018;2023-12-29T12:29:02;6.80;;;1.55;;
42186;SDS011;27858;51.414;0.018;2023-12-29T12:31:30;2.92;;;1.05;;
42186;SDS011;27858;51.414;0.018;2023-12-29T12:33:57;2.75;;;1.13;;
42186;SDS011;27858;51.414;0.018;2023-12-29T12:36:26;1.85;;;0.88;;
42186;SDS011;27858;51.414;0.018;2023-12-29T12:38:54;3.95;;;0.60;;
42186;SDS011;27858;51.414;0.018;2023-12-29T12:41:23;1.17;;;0.38;;
42186;SDS011;27858;51.414;0.018;2023-12-29T12:44:12;3.35;;;1.30;;
42186;SDS011;27858;51.414;0.018;2023-12-29T12:46:48;3.83;;;1.17;;
42186;SDS011;27858;51.414;0.018;2023-12-29T12:49:20;1.53;;;0.80;;
42186;SDS011;27858;51.414;0.018;2023-12-29T12:51:48;1.77;;;0.70;;
42186;SDS011;27858;51.414;0.018;2023-12-29T12:54:18;5.05;;;0.88;;
42186;SDS011;27858;51.414;0.018;2023-12-29T12:56:46;1.20;;;0.85;;
42186;SDS011;27858;51.414;0.018;2023-12-29T12:59:14;1.17;;;0.57;;
42186;SDS011;27858;51.414;0.018;2023-12-29T13:01:42;5.38;;;1.48;;
42186;SDS011;27858;51.414;0.018;2023-12-29T13:04:10;4.35;;;1.23;;
42186;SDS011;27858;51.414;0.018;2023-12-29T13:06:39;1.70;;;0.57;;
42186;SDS011;27858;51.414;0.018;2023-12-29T13:09:07;1.15;;;0.50;;
42186;SDS011;27858;51.414;0.018;2023-12-29T13:11:38;1.75;;;0.68;;
42186;SDS011;27858;51.414;0.018;2023-12-29T13:14:07;1.27;;;0.55;;
42186;SDS011;27858;51.414;0.018;2023-12-29T13:16:37;9.23;;;0.80;;
42186;SDS011;27858;51.414;0.018;2023-12-29T13:21:55;4.25;;;1.15;;
42186;SDS011;27858;51.414;0.018;2023-12-29T13:24:23;4.07;;;0.70;;
42186;SDS011;27858;51.414;0.018;2023-12-29T13:26:54;2.63;;;0.80;;
42186;SDS011;27858;51.414;0.018;2023-12-29T13:29:24;2.73;;;0.50;;
42186;SDS011;27858;51.414;0.018;2023-12-29T13:31:52;1.00;;;0.73;;
42186;SDS011;27858;51.414;0.018;2023-12-29T13:34:23;1.83;;;0.40;;
42186;SDS011;27858;51.414;0.018;2023-12-29T13:37:02;2.58;;;0.50;;
42186;SDS011;27858;51.414;0.018;2023-12-29T13:39:31;1.17;;;0.40;;
42186;SDS011;27858;51.414;0.018;2023-12-29T13:42:10;7.05;;;0.77;;
42186;SDS011;27858;51.414;0.018;2023-12-29T13:44:40;0.98;;;0.40;;
42186;SDS011;27858;51.414;0.018;2023-12-29T13:47:09;1.10;;;0.55;;
42186;SDS011;27858;51.414;0.018;2023-12-29T13:49:37;4.65;;;0.82;;
42186;SDS011;27858;51.414;0.018;2023-12-29T13:52:05;1.50;;;0.40;;
42186;SDS011;27858;51.414;0.018;2023-12-29T13:54:42;2.30;;;0.63;;
42186;SDS011;27858;51.414;0.018;2023-12-29T13:57:11;0.82;;;0.60;;
42186;SDS011;27858;51.414;0.018;2023-12-29T13:59:39;0.90;;;0.38;;
42186;SDS011;27858;51.414;0.018;2023-12-29T14:07:41;0.82;;;0.40;;
42186;SDS011;27858;51.414;0.018;2023-12-29T14:10:12;0.75;;;0.52;;
42186;SDS011;27858;51.414;0.018;2023-12-29T14:12:40;1.83;;;0.93;;
42186;SDS011;27858;51.414;0.018;2023-12-29T14:15:07;0.52;;;0.40;;
42186;SDS011;27858;51.414;0.018;2023-12-29T14:17:35;9.93;;;2.15;;
42186;SDS011;27858;51.414;0.018;2023-12-29T14:20:05;2.60;;;0.50;;
42186;SDS011;27858;51.414;0.018;2023-12-29T14:22:33;0.93;;;0.50;;
42186;SDS011;27858;51.414;0.018;2023-12-29T14:25:01;0.40;;;0.30;;
42186;SDS011;27858;51.414;0.018;2023-12-29T14:27:30;0.73;;;0.38;;
42186;SDS011;27858;51.414;0.018;2023-12-29T14:29:57;5.90;;;1.52;;
42186;SDS011;27858;51.414;0.018;2023-12-29T14:32:25;1.75;;;0.85;;
42186;SDS011;27858;51.414;0.018;2023-12-29T14:34:55;1.83;;;0.65;;
42186;SDS011;27858;51.414;0.018;2023-12-29T14:37:22;1.50;;;1.05;;
42186;SDS011;27858;51.414;0.018;2023-12-29T14:39:49;3.22;;;0.93;;
42186;SDS011;27858;51.414;0.018;2023-12-29T14:42:16;1.45;;;0.73;;
42186;SDS011;27858;51.414;0.018;2023-12-29T14:44:47;5.15;;;1.33;;
42186;SDS011;27858;51.414;0.018;2023-12-29T14:47:16;0.90;;;0.60;;
42186;SDS011;27858;51.414;0.018;2023-12-29T14:49:44;1.48;;;0.50;;
42186;SDS011;27858;51.414;0.018;2023-12-29T14:52:11;0.98;;;0.52;;
42186;SDS011;27858;51.414;0.018;2023-12-29T14:54:38;0.57;;;0.45;;
42186;SDS011;27858;51.414;0.018;2023-12-29T14:57:06;1.20;;;0.68;;
42186;SDS011;27858;51.414;0.018;2023-12-29T14:59:41;3.70;;;0.43;;
42186;SDS011;27858;51.414;0.018;2023-12-29T15:02:08;1.23;;;0.57;;
42186;SDS011;27858;51.414;0.018;2023-12-29T15:04:35;1.90;;;0.77;;
42186;SDS011;27858;51.414;0.018;2023-12-29T15:07:02;2.33;;;0.75;;
42186;SDS011;27858;51.414;0.018;2023-12-29T15:09:30;1.88;;;0.82;;
42186;SDS011;27858;51.414;0.018;2023-12-29T15:11:57;1.75;;;0.60;;
42186;SDS011;27858;51.414;0.018;2023-12-29T15:14:23;2.00;;;0.57;;
42186;SDS011;27858;51.414;0.018;2023-12-29T15:16:50;1.02;;;0.30;;
42186;SDS011;27858;51.414;0.018;2023-12-29T15:19:17;1.05;;;0.57;;
42186;SDS011;27858;51.414;0.018;2023-12-29T15:21:44;1.02;;;0.35;;
42186;SDS011;27858;51.414;0.018;2023-12-29T15:24:11;1.13;;;0.45;;
42186;SDS011;27858;51.414;0.018;2023-12-29T15:26:38;1.25;;;0.40;;
42186;SDS011;27858;51.414;0.018;2023-12-29T15:29:05;1.23;;;0.30;;
42186;SDS011;27858;51.414;0.018;2023-12-29T15:31:33;2.22;;;0.70;;